Time;durP1;ratioP1;P1;durP2;ratioP2;P2;SDS_P1;SDS_P2;PMS_P1;PMS_P2;Temp;Humidity;BMP_temperature;BMP_pressure;BME280_temperature;BME280_humidity;BME280_pressure;Samples;Min_cycle;Max_cycle;Signal;HPM_P1;HPM_P2
2021/04/23 00:03:17;;;;;;;12.7;7.9;;;;;;;3.32;78.11914;98993.33;;;;
2021/04/23 00:13:16;;;;;;;14.4;8.4;;;;;;;3.44;77.44238;98997.45;;;;
2021/04/23 00:23:14;;;;;;;15.5;8.9;;;;;;;3.36;77.12891;98995.25;;;;
2021/04/23 00:33:12;;;;;;;14.7;8.8;;;;;;;3.11;78.16895;98988.83;;;;
2021/04/23 00:43:10;;;;;;;13.4;8;;;;;;;2.84;80.14844;98984.27;;;;
2021/04/23 00:53:08;;;;;;;12.4;7.7;;;;;;;2.77;81.34082;98982.84;;;;
2021/04/23 01:03:06;;;;;;;17.1;9.2;;;;;;;2.73;83.21289;98984.38;;;;
2021/04/23 01:13:03;;;;;;;20;12.4;;;;;;;2.79;84.13184;98991.37;;;;
2021/04/23 01:23:01;;;;;;;22.1;13;;;;;;;2.92;84.05859;99002.45;;;;
2021/04/23 01:32:59;;;;;;;22.6;13.3;;;;;;;3.11;83.72852;98999.48;;;;
2021/04/23 01:42:58;;;;;;;36.5;14.7;;;;;;;3.3;83.05957;99004.22;;;;
2021/04/23 01:52:56;;;;;;;22.9;11.3;;;;;;;3.55;82.37695;99007.16;;;;
2021/04/23 02:02:54;;;;;;;21.7;13.2;;;;;;;3.61;82.85254;99005.34;;;;
2021/04/23 02:12:52;;;;;;;19.3;13.2;;;;;;;3.65;82.77051;99009.11;;;;
2021/04/23 02:22:50;;;;;;;16;11.6;;;;;;;3.6;84.19141;99014.41;;;;
2021/04/23 02:32:48;;;;;;;18.2;12.2;;;;;;;3.47;86.35645;99020.14;;;;
2021/04/23 02:42:46;;;;;;;24.7;14.8;;;;;;;3.27;87.30176;99034.02;;;;
2021/04/23 02:52:44;;;;;;;23.4;10.8;;;;;;;2.96;91.03906;99030.19;;;;
2021/04/23 03:02:42;;;;;;;12.2;9.5;;;;;;;2.83;92.62109;99030.56;;;;
2021/04/23 03:12:40;;;;;;;16.9;10;;;;;;;2.73;95.17676;99026.95;;;;
2021/04/23 03:22:38;;;;;;;13.1;9.3;;;;;;;2.88;95.80762;99033.27;;;;
2021/04/23 03:32:36;;;;;;;15.4;9.9;;;;;;;2.8;95.95508;99047.02;;;;
2021/04/23 03:42:34;;;;;;;19.3;9.9;;;;;;;2.76;95.65918;99048.56;;;;
2021/04/23 03:52:32;;;;;;;15.8;8.8;;;;;;;2.81;96.8584;99053.94;;;;
2021/04/23 04:02:30;;;;;;;15.2;8.7;;;;;;;2.91;96.27637;99067.41;;;;
2021/04/23 04:12:28;;;;;;;13.9;7.4;;;;;;;2.88;96.25781;99075.09;;;;
2021/04/23 04:22:26;;;;;;;15.5;8.6;;;;;;;2.96;95.39551;99080.77;;;;
2021/04/23 04:32:24;;;;;;;11.1;7.2;;;;;;;3.02;95.89258;99082.45;;;;
2021/04/23 04:42:22;;;;;;;16.8;8.3;;;;;;;3.26;95.31543;99092.89;;;;
2021/04/23 04:52:21;;;;;;;13.6;8.7;;;;;;;3.49;94.42871;99097.95;;;;
2021/04/23 05:02:21;;;;;;;14.9;8.1;;;;;;;3.79;94.1416;99110.8;;;;
2021/04/23 05:12:16;;;;;;;11.8;7.7;;;;;;;4;93.04785;99123.3;;;;
2021/04/23 05:22:15;;;;;;;15.3;8;;;;;;;4.56;91.13184;99121.94;;;;
2021/04/23 05:32:13;;;;;;;13.1;8.4;;;;;;;4.94;87.47363;99129.69;;;;
2021/04/23 05:42:11;;;;;;;14.1;9.1;;;;;;;4.99;85.75195;99140.42;;;;
2021/04/23 05:52:09;;;;;;;13.8;8.5;;;;;;;5.38;84.91699;99132.09;;;;
2021/04/23 06:02:07;;;;;;;18;9.4;;;;;;;5.67;82.84668;99138.61;;;;
2021/04/23 06:12:06;;;;;;;18.1;9.5;;;;;;;5.64;83.56543;99146.36;;;;
2021/04/23 06:22:06;;;;;;;13.3;11.1;;;;;;;5.68;83.09375;99144.77;;;;
2021/04/23 06:32:03;;;;;;;13.7;10;;;;;;;5.68;82.89453;99166.97;;;;
2021/04/23 06:42:01;;;;;;;21;13.1;;;;;;;5.76;83.46484;99165.67;;;;
2021/04/23 06:51:59;;;;;;;14.9;10.7;;;;;;;6.01;81.30859;99176.47;;;;
2021/04/23 07:01:58;;;;;;;19.2;12;;;;;;;6.13;81.15137;99179.73;;;;
2021/04/23 07:11:57;;;;;;;20.7;11.9;;;;;;;6.25;79.68945;99190.2;;;;
2021/04/23 07:21:55;;;;;;;17.8;11.9;;;;;;;6.29;81.62793;99189.39;;;;
2021/04/23 07:31:53;;;;;;;16.5;13.4;;;;;;;6.48;82.94629;99181.67;;;;
2021/04/23 07:41:53;;;;;;;25.1;14;;;;;;;6.73;79.36523;99197.77;;;;
2021/04/23 07:51:50;;;;;;;23.6;16.2;;;;;;;7.16;76.8584;99179.5;;;;
2021/04/23 08:01:54;;;;;;;15.1;13.1;;;;;;;7.89;73.12891;99188.69;;;;
2021/04/23 08:11:48;;;;;;;19.5;14.5;;;;;;;7.57;73.62402;99194.43;;;;
2021/04/23 08:21:46;;;;;;;14.6;10.6;;;;;;;7.56;73.3877;99184.8;;;;
2021/04/23 08:31:45;;;;;;;13.2;10.3;;;;;;;7.34;76.35254;99200.39;;;;
2021/04/23 08:41:44;;;;;;;14.8;11.7;;;;;;;7.11;77.375;99198.29;;;;
2021/04/23 08:51:42;;;;;;;15.6;11.2;;;;;;;6.69;80.84375;99207.41;;;;
2021/04/23 09:01:41;;;;;;;15.3;11.4;;;;;;;8.13;85.48828;99191.52;;;;
2021/04/23 09:11:41;;;;;;;17.9;10.9;;;;;;;7.97;80.12988;99185.44;;;;
2021/04/23 09:21:38;;;;;;;11.4;9.4;;;;;;;7.98;73.60449;99190.52;;;;
2021/04/23 09:31:37;;;;;;;17.2;9.6;;;;;;;8.43;70.71191;99180.66;;;;
2021/04/23 09:41:36;;;;;;;15.5;9.9;;;;;;;8.75;65.90918;99159.44;;;;
2021/04/23 09:51:35;;;;;;;17.7;8.6;;;;;;;8.69;66.93652;99171.33;;;;
2021/04/23 10:01:33;;;;;;;18.8;7.4;;;;;;;7.51;67.97949;99160.66;;;;
2021/04/23 10:11:32;;;;;;;11;6.9;;;;;;;7.76;68.18848;99144.48;;;;
2021/04/23 10:21:31;;;;;;;13.7;8.3;;;;;;;8.45;66.02246;99154.31;;;;
2021/04/23 10:31:29;;;;;;;11.1;6.7;;;;;;;6.81;75.4541;99215.97;;;;
2021/04/23 10:41:29;;;;;;;10.3;7;;;;;;;5.95;89.2373;99202.41;;;;
2021/04/23 10:51:27;;;;;;;6.4;3.8;;;;;;;6.46;91.84473;99197.17;;;;
2021/04/23 11:01:38;;;;;;;12.5;8.1;;;;;;;7.38;86.02246;99182.69;;;;
2021/04/23 11:11:23;;;;;;;11.9;8.4;;;;;;;8.7;76.72656;99177.5;;;;
2021/04/23 11:21:39;;;;;;;5.2;4.1;;;;;;;6.94;75.93457;99182.5;;;;
2021/04/23 11:31:21;;;;;;;13.6;6.3;;;;;;;6.37;83.07129;99207.62;;;;
2021/04/23 11:41:21;;;;;;;13.4;5.5;;;;;;;6.85;83.66602;99205.52;;;;
2021/04/23 11:51:18;;;;;;;7.5;4.4;;;;;;;5.93;93.67676;99199.2;;;;
2021/04/23 12:01:16;;;;;;;9.6;5.7;;;;;;;5.79;97.38477;99215.96;;;;
2021/04/23 12:11:14;;;;;;;13;9.1;;;;;;;6;99.19531;99209.66;;;;
2021/04/23 12:21:13;;;;;;;8.9;7.1;;;;;;;7.21;88.20117;99212.48;;;;
2021/04/23 12:31:15;;;;;;;13.8;8.1;;;;;;;6.5;93.17578;99249.14;;;;
2021/04/23 12:41:10;;;;;;;7.7;6.1;;;;;;;7.29;87.19043;99214.6;;;;
2021/04/23 12:51:08;;;;;;;8.3;5.8;;;;;;;7.74;82.11523;99205.64;;;;
2021/04/23 13:01:07;;;;;;;12.8;9.2;;;;;;;8.08;82.19043;99201.23;;;;
2021/04/23 13:11:05;;;;;;;10.5;5.7;;;;;;;8.06;81.33398;99189.14;;;;
2021/04/23 13:21:04;;;;;;;17.8;10.8;;;;;;;8.66;78.67383;99171.89;;;;
2021/04/23 13:31:03;;;;;;;10.8;7.7;;;;;;;9.25;69.48047;99165.45;;;;
2021/04/23 13:41:02;;;;;;;12.7;8.1;;;;;;;9.84;63.54395;99165.86;;;;
2021/04/23 13:51:00;;;;;;;11.3;7.1;;;;;;;9.44;63.74414;99174.41;;;;
2021/04/23 14:00:59;;;;;;;6.1;4.3;;;;;;;8.22;71.23926;99179.14;;;;
2021/04/23 14:10:58;;;;;;;8.3;4.5;;;;;;;6.92;80.95313;99198.02;;;;
2021/04/23 14:20:56;;;;;;;11.8;5.9;;;;;;;6.7;85.97754;99181.42;;;;
2021/04/23 14:30:55;;;;;;;7.7;6.6;;;;;;;7.84;85.23145;99180.67;;;;
2021/04/23 14:40:55;;;;;;;12.4;9.2;;;;;;;8.47;80.95313;99171.74;;;;
2021/04/23 14:50:52;;;;;;;13.2;9.5;;;;;;;9.66;73.37012;99180.07;;;;
2021/04/23 15:00:51;;;;;;;14.4;10.2;;;;;;;8.77;74.82813;99184.17;;;;
2021/04/23 15:10:50;;;;;;;12.1;7.2;;;;;;;7.35;79.1416;99188.6;;;;
2021/04/23 15:20:48;;;;;;;16;12;;;;;;;9.91;77.3457;99169.01;;;;
2021/04/23 15:30:47;;;;;;;11.8;9.5;;;;;;;12.82;61.75684;99157.7;;;;
2021/04/23 15:40:46;;;;;;;15;10.7;;;;;;;10.89;67.01563;99161.95;;;;
2021/04/23 15:50:45;;;;;;;13.1;10.7;;;;;;;10.83;66.70117;99176.63;;;;
2021/04/23 16:00:45;;;;;;;15.3;9.4;;;;;;;9.74;64.89551;99174.06;;;;
2021/04/23 16:10:43;;;;;;;14.6;11.9;;;;;;;10.51;62.98438;99178.19;;;;
2021/04/23 16:20:42;;;;;;;16.5;11.1;;;;;;;9.85;60.52344;99175.55;;;;
2021/04/23 16:30:41;;;;;;;8.3;4.7;;;;;;;9.43;52.34668;99173.61;;;;
2021/04/23 16:40:40;;;;;;;13.3;5.8;;;;;;;8.39;49.23535;99198.41;;;;
2021/04/23 16:50:38;;;;;;;12;9.1;;;;;;;8.07;51.74414;99204.98;;;;
2021/04/23 17:00:37;;;;;;;19;8;;;;;;;7.59;53.36719;99208.39;;;;
2021/04/23 17:10:36;;;;;;;24.1;10.9;;;;;;;7.13;55.87988;99221.06;;;;
2021/04/23 17:20:34;;;;;;;11.2;7.1;;;;;;;6.94;57.63379;99234.19;;;;
2021/04/23 17:30:33;;;;;;;11.2;7.4;;;;;;;6.87;59.85059;99241.69;;;;
2021/04/23 17:40:31;;;;;;;16.6;9;;;;;;;6.67;61.7666;99256.93;;;;
2021/04/23 17:50:30;;;;;;;13.6;9.3;;;;;;;6.29;67.25195;99275.05;;;;
2021/04/23 18:00:28;;;;;;;16.3;10.8;;;;;;;6;71.05664;99296.05;;;;
2021/04/23 18:10:26;;;;;;;21.4;16.6;;;;;;;5.82;73.69629;99298.35;;;;
2021/04/23 18:20:25;;;;;;;17.5;13.2;;;;;;;5.53;75.47754;99308.59;;;;
2021/04/23 18:30:23;;;;;;;17.5;11.9;;;;;;;5.22;77.39551;99320.1;;;;
2021/04/23 18:40:24;;;;;;;16.1;11.1;;;;;;;4.84;80.16602;99332.58;;;;
2021/04/23 18:50:23;;;;;;;21.6;13.2;;;;;;;4.45;82.50293;99320.4;;;;
2021/04/23 19:00:18;;;;;;;23.3;18.3;;;;;;;4.08;84.18555;99328.22;;;;
2021/04/23 19:10:16;;;;;;;24.9;17.7;;;;;;;3.84;85.87598;99334.83;;;;
2021/04/23 19:20:14;;;;;;;30.8;19.2;;;;;;;3.82;87.7002;99344.91;;;;
2021/04/23 19:30:12;;;;;;;23.2;15.1;;;;;;;3.78;85.45605;99346.48;;;;
2021/04/23 19:40:10;;;;;;;21;15.7;;;;;;;3.94;84.14453;99350.97;;;;
2021/04/23 19:50:08;;;;;;;24;15.4;;;;;;;4.32;80.51172;99344.8;;;;
2021/04/23 20:00:06;;;;;;;25.1;21.1;;;;;;;4.46;80.11621;99372.73;;;;
2021/04/23 20:10:05;;;;;;;24.9;18.8;;;;;;;4.5;80.80273;99363.98;;;;
2021/04/23 20:20:03;;;;;;;23.9;19.4;;;;;;;4.41;81.51758;99361.98;;;;
2021/04/23 20:30:01;;;;;;;21;17.4;;;;;;;4.1;82.72461;99366.11;;;;
2021/04/23 20:39:59;;;;;;;24.7;18.9;;;;;;;3.69;83.61035;99354.06;;;;
2021/04/23 20:49:57;;;;;;;20.1;15.5;;;;;;;3.43;85.97363;99357.4;;;;
2021/04/23 20:59:57;;;;;;;30.1;20.6;;;;;;;3.52;89.98242;99363.93;;;;
2021/04/23 21:09:53;;;;;;;28.9;21;;;;;;;3.72;89.70703;99364.23;;;;
2021/04/23 21:19:51;;;;;;;27.7;21.1;;;;;;;3.97;89.59277;99380.62;;;;
2021/04/23 21:29:49;;;;;;;25.8;20.9;;;;;;;4.01;91.07227;99372.94;;;;
2021/04/23 21:39:47;;;;;;;27.4;20;;;;;;;4.18;88.86914;99362.22;;;;
2021/04/23 21:49:45;;;;;;;36.7;29.1;;;;;;;4.15;90.33691;99352.05;;;;
2021/04/23 21:59:43;;;;;;;40.3;28.7;;;;;;;4.01;92.43262;99340.93;;;;
2021/04/23 22:09:41;;;;;;;23.6;19.7;;;;;;;4.12;87.07422;99342.69;;;;
2021/04/23 22:19:40;;;;;;;23.8;18.8;;;;;;;4.27;85.89746;99350.09;;;;
2021/04/23 22:29:38;;;;;;;30.6;19;;;;;;;4.38;86.81641;99351.8;;;;
2021/04/23 22:39:36;;;;;;;23.9;16.9;;;;;;;4.54;85.49512;99361.63;;;;
2021/04/23 22:49:34;;;;;;;29.9;18.7;;;;;;;4.49;85.8291;99342.87;;;;
2021/04/23 22:59:32;;;;;;;31.8;21.6;;;;;;;4.29;85.29102;99326.62;;;;
2021/04/23 23:09:30;;;;;;;27;19.9;;;;;;;4.12;84.13672;99333.88;;;;
2021/04/23 23:19:28;;;;;;;32.7;20.4;;;;;;;4.13;82.89453;99316.83;;;;
2021/04/23 23:29:28;;;;;;;20.4;17.4;;;;;;;4.19;82.07422;99326.5;;;;
2021/04/23 23:39:25;;;;;;;24.4;17.3;;;;;;;4.11;81.84961;99317.05;;;;
2021/04/23 23:49:23;;;;;;;22.8;17.2;;;;;;;4.17;81.61719;99318.73;;;;
2021/04/23 23:59:23;;;;;;;25.9;18.9;;;;;;;4.18;82.30762;99320.35;;;;
